Aviation Digital Data Service (ADDS)

Output produced by METARs form (0326 UTC 19 August 2019)
found at http://www.aviationweather.gov/metar/data/
 
METAR text: EHLW 190255Z AUTO 20008KT 160V230 9999 FEW015CB 16/14 Q1008 BLU
Conditions at: EHLW (LEEUWARDEN RNLAF, NL) observed 0255 UTC 19 August 2019
Temperature: 16.0°C (61°F)
Dewpoint: 14.0°C (57°F) [RH = 88%]
Pressure (altimeter): 29.76 inches Hg (1008.0 mb)
Winds: from the SSW (200 degrees) at 9 MPH (8 knots; 4.1 m/s)
Visibility: 6 or more miles (10+ km)
Ceiling: at least 12,000 feet AGL
Clouds: few clouds at 1500 feet AGL
Weather: no significant weather observed at this time

METAR text: EHLW 190225Z AUTO 22009KT 9999 FEW091 16/15 Q1008 BLU
Conditions at: EHLW (LEEUWARDEN RNLAF, NL) observed 0225 UTC 19 August 2019
Temperature: 16.0°C (61°F)
Dewpoint: 15.0°C (59°F) [RH = 94%]
Pressure (altimeter): 29.76 inches Hg (1008.0 mb)
Winds: from the SW (220 degrees) at 10 MPH (9 knots; 4.6 m/s)
Visibility: 6 or more miles (10+ km)
Ceiling: at least 12,000 feet AGL
Clouds: few clouds at 9100 feet AGL
Weather: no significant weather observed at this time

METAR text: EHLW 190155Z AUTO 21008KT 170V230 9999 OVC088 16/15 Q1008 BLU
Conditions at: EHLW (LEEUWARDEN RNLAF, NL) observed 0155 UTC 19 August 2019
Temperature: 16.0°C (61°F)
Dewpoint: 15.0°C (59°F) [RH = 94%]
Pressure (altimeter): 29.76 inches Hg (1008.0 mb)
Winds: from the SSW (210 degrees) at 9 MPH (8 knots; 4.1 m/s)
Visibility: 6 or more miles (10+ km)
Ceiling: 8800 feet AGL
Clouds: overcast cloud deck at 8800 feet AGL
Weather: no significant weather observed at this time

METAR text: EHLW 190125Z AUTO 22009KT 9999 SCT079 SCT091 16/15 Q1008 BLU
Conditions at: EHLW (LEEUWARDEN RNLAF, NL) observed 0125 UTC 19 August 2019
Temperature: 16.0°C (61°F)
Dewpoint: 15.0°C (59°F) [RH = 94%]
Pressure (altimeter): 29.76 inches Hg (1008.0 mb)
Winds: from the SW (220 degrees) at 10 MPH (9 knots; 4.6 m/s)
Visibility: 6 or more miles (10+ km)
Ceiling: at least 12,000 feet AGL
Clouds: scattered clouds at 7900 feet AGL
scattered clouds at 9100 feet AGL
Weather: no significant weather observed at this time

METAR text: EHLW 190055Z AUTO 22010KT 180V240 9999 OVC083 16/15 Q1008 BLU
Conditions at: EHLW (LEEUWARDEN RNLAF, NL) observed 0055 UTC 19 August 2019
Temperature: 16.0°C (61°F)
Dewpoint: 15.0°C (59°F) [RH = 94%]
Pressure (altimeter): 29.76 inches Hg (1008.0 mb)
Winds: from the SW (220 degrees) at 12 MPH (10 knots; 5.1 m/s)
Visibility: 6 or more miles (10+ km)
Ceiling: 8300 feet AGL
Clouds: overcast cloud deck at 8300 feet AGL
Weather: no significant weather observed at this time

METAR text: EHLW 190025Z AUTO 21007KT 170V230 9999 FEW054 SCT062 BKN072 16/14 Q1008 BLU
Conditions at: EHLW (LEEUWARDEN RNLAF, NL) observed 0025 UTC 19 August 2019
Temperature: 16.0°C (61°F)
Dewpoint: 14.0°C (57°F) [RH = 88%]
Pressure (altimeter): 29.76 inches Hg (1008.0 mb)
Winds: from the SSW (210 degrees) at 8 MPH (7 knots; 3.6 m/s)
Visibility: 6 or more miles (10+ km)
Ceiling: 7200 feet AGL
Clouds: few clouds at 5400 feet AGL
scattered clouds at 6200 feet AGL
broken clouds at 7200 feet AGL
Weather: no significant weather observed at this time

METAR text: EHLW 182355Z AUTO 21006KT 160V230 9999 OVC082 15/14 Q1008 BLU
Conditions at: EHLW (LEEUWARDEN RNLAF, NL) observed 2355 UTC 18 August 2019
Temperature: 15.0°C (59°F)
Dewpoint: 14.0°C (57°F) [RH = 94%]
Pressure (altimeter): 29.76 inches Hg (1008.0 mb)
Winds: from the SSW (210 degrees) at 7 MPH (6 knots; 3.1 m/s)
Visibility: 6 or more miles (10+ km)
Ceiling: 8200 feet AGL
Clouds: overcast cloud deck at 8200 feet AGL
Weather: no significant weather observed at this time

METAR text: EHLW 182325Z AUTO 20007KT 160V230 9999 OVC081 15/14 Q1007 BLU
Conditions at: EHLW (LEEUWARDEN RNLAF, NL) observed 2325 UTC 18 August 2019
Temperature: 15.0°C (59°F)
Dewpoint: 14.0°C (57°F) [RH = 94%]
Pressure (altimeter): 29.73 inches Hg (1007.0 mb)
Winds: from the SSW (200 degrees) at 8 MPH (7 knots; 3.6 m/s)
Visibility: 6 or more miles (10+ km)
Ceiling: 8100 feet AGL
Clouds: overcast cloud deck at 8100 feet AGL
Weather: no significant weather observed at this time

METAR text: EHLW 182255Z AUTO 19006KT 160V220 9999 NCD 15/14 Q1007 BLU
Conditions at: EHLW (LEEUWARDEN RNLAF, NL) observed 2255 UTC 18 August 2019
Temperature: 15.0°C (59°F)
Dewpoint: 14.0°C (57°F) [RH = 94%]
Pressure (altimeter): 29.73 inches Hg (1007.0 mb)
Winds: from the S (190 degrees) at 7 MPH (6 knots; 3.1 m/s)
Visibility: 6 or more miles (10+ km)
Ceiling: at least 12,000 feet AGL
Clouds: sky clear below 12,000 feet AGL
Weather: no significant weather observed at this time

METAR text: EHLW 182225Z AUTO 19006KT 160V230 9999 NCD 15/13 Q1007 BLU
Conditions at: EHLW (LEEUWARDEN RNLAF, NL) observed 2225 UTC 18 August 2019
Temperature: 15.0°C (59°F)
Dewpoint: 13.0°C (55°F) [RH = 88%]
Pressure (altimeter): 29.73 inches Hg (1007.0 mb)
Winds: from the S (190 degrees) at 7 MPH (6 knots; 3.1 m/s)
Visibility: 6 or more miles (10+ km)
Ceiling: at least 12,000 feet AGL
Clouds: sky clear below 12,000 feet AGL
Weather: no significant weather observed at this time

METAR text: EHLW 182155Z AUTO 19006KT 150V220 9999 NCD 15/13 Q1007 BLU
Conditions at: EHLW (LEEUWARDEN RNLAF, NL) observed 2155 UTC 18 August 2019
Temperature: 15.0°C (59°F)
Dewpoint: 13.0°C (55°F) [RH = 88%]
Pressure (altimeter): 29.73 inches Hg (1007.0 mb)
Winds: from the S (190 degrees) at 7 MPH (6 knots; 3.1 m/s)
Visibility: 6 or more miles (10+ km)
Ceiling: at least 12,000 feet AGL
Clouds: sky clear below 12,000 feet AGL
Weather: no significant weather observed at this time

METAR text: EHLW 182125Z AUTO 19007KT 160V220 9999 NCD 15/14 Q1007 BLU
Conditions at: EHLW (LEEUWARDEN RNLAF, NL) observed 2125 UTC 18 August 2019
Temperature: 15.0°C (59°F)
Dewpoint: 14.0°C (57°F) [RH = 94%]
Pressure (altimeter): 29.73 inches Hg (1007.0 mb)
Winds: from the S (190 degrees) at 8 MPH (7 knots; 3.6 m/s)
Visibility: 6 or more miles (10+ km)
Ceiling: at least 12,000 feet AGL
Clouds: sky clear below 12,000 feet AGL
Weather: no significant weather observed at this time

METAR text: EHLW 182055Z AUTO 20005KT 9999 NCD 15/13 Q1007 BLU
Conditions at: EHLW (LEEUWARDEN RNLAF, NL) observed 2055 UTC 18 August 2019
Temperature: 15.0°C (59°F)
Dewpoint: 13.0°C (55°F) [RH = 88%]
Pressure (altimeter): 29.73 inches Hg (1007.0 mb)
Winds: from the SSW (200 degrees) at 6 MPH (5 knots; 2.6 m/s)
Visibility: 6 or more miles (10+ km)
Ceiling: at least 12,000 feet AGL
Clouds: sky clear below 12,000 feet AGL
Weather: no significant weather observed at this time

METAR text: EHLW 182025Z AUTO 20004KT 9999 FEW017 15/13 Q1007 BLU
Conditions at: EHLW (LEEUWARDEN RNLAF, NL) observed 2025 UTC 18 August 2019
Temperature: 15.0°C (59°F)
Dewpoint: 13.0°C (55°F) [RH = 88%]
Pressure (altimeter): 29.73 inches Hg (1007.0 mb)
Winds: from the SSW (200 degrees) at 5 MPH (4 knots; 2.1 m/s)
Visibility: 6 or more miles (10+ km)
Ceiling: at least 12,000 feet AGL
Clouds: few clouds at 1700 feet AGL
Weather: no significant weather observed at this time

METAR text: EHLW 182000Z AUTO 21007KT 9999 FEW019 15/13 Q1007 BLU
Conditions at: EHLW (LEEUWARDEN RNLAF, NL) observed 2000 UTC 18 August 2019
Temperature: 15.0°C (59°F)
Dewpoint: 13.0°C (55°F) [RH = 88%]
Pressure (altimeter): 29.73 inches Hg (1007.0 mb)
Winds: from the SSW (210 degrees) at 8 MPH (7 knots; 3.6 m/s)
Visibility: 6 or more miles (10+ km)
Ceiling: at least 12,000 feet AGL
Clouds: few clouds at 1900 feet AGL
Weather: no significant weather observed at this time

METAR text: EHLW 181956Z AUTO 22007KT 9999 FEW019 SCT022 16/13 Q1007 WHT
Conditions at: EHLW (LEEUWARDEN RNLAF, NL) observed 1956 UTC 18 August 2019
Temperature: 16.0°C (61°F)
Dewpoint: 13.0°C (55°F) [RH = 82%]
Pressure (altimeter): 29.73 inches Hg (1007.0 mb)
Winds: from the SW (220 degrees) at 8 MPH (7 knots; 3.6 m/s)
Visibility: 6 or more miles (10+ km)
Ceiling: at least 12,000 feet AGL
Clouds: few clouds at 1900 feet AGL
scattered clouds at 2200 feet AGL
Weather: no significant weather observed at this time

METAR text: EHLW 181955Z AUTO 22007KT 9999 FEW020 15/13 Q1007 BLU
Conditions at: EHLW (LEEUWARDEN RNLAF, NL) observed 1955 UTC 18 August 2019
Temperature: 15.0°C (59°F)
Dewpoint: 13.0°C (55°F) [RH = 88%]
Pressure (altimeter): 29.73 inches Hg (1007.0 mb)
Winds: from the SW (220 degrees) at 8 MPH (7 knots; 3.6 m/s)
Visibility: 6 or more miles (10+ km)
Ceiling: at least 12,000 feet AGL
Clouds: few clouds at 2000 feet AGL
Weather: no significant weather observed at this time

METAR text: EHLW 181925Z AUTO 22007KT 9999 FEW023 16/13 Q1006 BLU
Conditions at: EHLW (LEEUWARDEN RNLAF, NL) observed 1925 UTC 18 August 2019
Temperature: 16.0°C (61°F)
Dewpoint: 13.0°C (55°F) [RH = 82%]
Pressure (altimeter): 29.70 inches Hg (1006.0 mb)
Winds: from the SW (220 degrees) at 8 MPH (7 knots; 3.6 m/s)
Visibility: 6 or more miles (10+ km)
Ceiling: at least 12,000 feet AGL
Clouds: few clouds at 2300 feet AGL
Weather: no significant weather observed at this time

METAR text: EHLW 181855Z AUTO 22008KT 9999 NCD 16/13 Q1006 BLU
Conditions at: EHLW (LEEUWARDEN RNLAF, NL) observed 1855 UTC 18 August 2019
Temperature: 16.0°C (61°F)
Dewpoint: 13.0°C (55°F) [RH = 82%]
Pressure (altimeter): 29.70 inches Hg (1006.0 mb)
Winds: from the SW (220 degrees) at 9 MPH (8 knots; 4.1 m/s)
Visibility: 6 or more miles (10+ km)
Ceiling: at least 12,000 feet AGL
Clouds: sky clear below 12,000 feet AGL
Weather: no significant weather observed at this time

METAR text: EHLW 181825Z AUTO 24008KT 9999 NCD 17/13 Q1006 BLU
Conditions at: EHLW (LEEUWARDEN RNLAF, NL) observed 1825 UTC 18 August 2019
Temperature: 17.0°C (63°F)
Dewpoint: 13.0°C (55°F) [RH = 77%]
Pressure (altimeter): 29.70 inches Hg (1006.0 mb)
Winds: from the WSW (240 degrees) at 9 MPH (8 knots; 4.1 m/s)
Visibility: 6 or more miles (10+ km)
Ceiling: at least 12,000 feet AGL
Clouds: sky clear below 12,000 feet AGL
Weather: no significant weather observed at this time

METAR text: EHLW 181755Z AUTO 25012KT 9999 NCD 18/13 Q1006 BLU
Conditions at: EHLW (LEEUWARDEN RNLAF, NL) observed 1755 UTC 18 August 2019
Temperature: 18.0°C (64°F)
Dewpoint: 13.0°C (55°F) [RH = 73%]
Pressure (altimeter): 29.70 inches Hg (1006.0 mb)
Winds: from the WSW (250 degrees) at 14 MPH (12 knots; 6.2 m/s)
Visibility: 6 or more miles (10+ km)
Ceiling: at least 12,000 feet AGL
Clouds: sky clear below 12,000 feet AGL
Weather: no significant weather observed at this time

METAR text: EHLW 181725Z AUTO 24012KT 210V270 9999 SCT028 SCT032 19/13 Q1005 BLU
Conditions at: EHLW (LEEUWARDEN RNLAF, NL) observed 1725 UTC 18 August 2019
Temperature: 19.0°C (66°F)
Dewpoint: 13.0°C (55°F) [RH = 68%]
Pressure (altimeter): 29.68 inches Hg (1005.0 mb)
Winds: from the WSW (240 degrees) at 14 MPH (12 knots; 6.2 m/s)
Visibility: 6 or more miles (10+ km)
Ceiling: at least 12,000 feet AGL
Clouds: scattered clouds at 2800 feet AGL
scattered clouds at 3200 feet AGL
Weather: no significant weather observed at this time

METAR text: EHLW 181655Z AUTO 24010KT 9999 SCT025 SCT028 19/13 Q1005 BLU
Conditions at: EHLW (LEEUWARDEN RNLAF, NL) observed 1655 UTC 18 August 2019
Temperature: 19.0°C (66°F)
Dewpoint: 13.0°C (55°F) [RH = 68%]
Pressure (altimeter): 29.68 inches Hg (1005.0 mb)
Winds: from the WSW (240 degrees) at 12 MPH (10 knots; 5.1 m/s)
Visibility: 6 or more miles (10+ km)
Ceiling: at least 12,000 feet AGL
Clouds: scattered clouds at 2500 feet AGL
scattered clouds at 2800 feet AGL
Weather: no significant weather observed at this time

METAR text: EHLW 181625Z AUTO 24013KT 210V270 9999 SCT025 SCT093 19/13 Q1005 BLU
Conditions at: EHLW (LEEUWARDEN RNLAF, NL) observed 1625 UTC 18 August 2019
Temperature: 19.0°C (66°F)
Dewpoint: 13.0°C (55°F) [RH = 68%]
Pressure (altimeter): 29.68 inches Hg (1005.0 mb)
Winds: from the WSW (240 degrees) at 15 MPH (13 knots; 6.7 m/s)
Visibility: 6 or more miles (10+ km)
Ceiling: at least 12,000 feet AGL
Clouds: scattered clouds at 2500 feet AGL
scattered clouds at 9300 feet AGL
Weather: no significant weather observed at this time

METAR text: EHLW 181555Z AUTO 24016KT 210V270 9999 FEW026 19/13 Q1005 BLU
Conditions at: EHLW (LEEUWARDEN RNLAF, NL) observed 1555 UTC 18 August 2019
Temperature: 19.0°C (66°F)
Dewpoint: 13.0°C (55°F) [RH = 68%]
Pressure (altimeter): 29.68 inches Hg (1005.0 mb)
Winds: from the WSW (240 degrees) at 18 MPH (16 knots; 8.2 m/s)
Visibility: 6 or more miles (10+ km)
Ceiling: at least 12,000 feet AGL
Clouds: few clouds at 2600 feet AGL
Weather: no significant weather observed at this time

METAR text: EHLW 181525Z AUTO 25017KT 220V290 9999 NCD 19/13 Q1005 BLU
Conditions at: EHLW (LEEUWARDEN RNLAF, NL) observed 1525 UTC 18 August 2019
Temperature: 19.0°C (66°F)
Dewpoint: 13.0°C (55°F) [RH = 68%]
Pressure (altimeter): 29.68 inches Hg (1005.0 mb)
Winds: from the WSW (250 degrees) at 20 MPH (17 knots; 8.7 m/s)
Visibility: 6 or more miles (10+ km)
Ceiling: at least 12,000 feet AGL
Clouds: sky clear below 12,000 feet AGL
Weather: no significant weather observed at this time

METAR text: EHLW 181513Z AUTO 25018KT 9999 FEW024 SCT027 19/13 Q1005 BLU
Conditions at: EHLW (LEEUWARDEN RNLAF, NL) observed 1513 UTC 18 August 2019
Temperature: 19.0°C (66°F)
Dewpoint: 13.0°C (55°F) [RH = 68%]
Pressure (altimeter): 29.68 inches Hg (1005.0 mb)
Winds: from the WSW (250 degrees) at 21 MPH (18 knots; 9.3 m/s)
Visibility: 6 or more miles (10+ km)
Ceiling: at least 12,000 feet AGL
Clouds: few clouds at 2400 feet AGL
scattered clouds at 2700 feet AGL
Weather: no significant weather observed at this time

METAR text: EHLW 181455Z AUTO 24015KT 210V270 9999 BKN021 BKN026 19/14 Q1004 REDZ WHT
Conditions at: EHLW (LEEUWARDEN RNLAF, NL) observed 1455 UTC 18 August 2019
Temperature: 19.0°C (66°F)
Dewpoint: 14.0°C (57°F) [RH = 73%]
Pressure (altimeter): 29.65 inches Hg (1004.0 mb)
Winds: from the WSW (240 degrees) at 17 MPH (15 knots; 7.7 m/s)
Visibility: 6 or more miles (10+ km)
Ceiling: 2100 feet AGL
Clouds: broken clouds at 2100 feet AGL
broken clouds at 2600 feet AGL
Weather: no significant weather observed at this time

METAR text: EHLW 181431Z AUTO 24011KT 9999 FEW021 BKN024 BKN028 18/15 Q1004 WHT
Conditions at: EHLW (LEEUWARDEN RNLAF, NL) observed 1431 UTC 18 August 2019
Temperature: 18.0°C (64°F)
Dewpoint: 15.0°C (59°F) [RH = 83%]
Pressure (altimeter): 29.65 inches Hg (1004.0 mb)
Winds: from the WSW (240 degrees) at 13 MPH (11 knots; 5.7 m/s)
Visibility: 6 or more miles (10+ km)
Ceiling: 2400 feet AGL
Clouds: few clouds at 2100 feet AGL
broken clouds at 2400 feet AGL
broken clouds at 2800 feet AGL
Weather: no significant weather observed at this time

METAR text: EHLW 181429Z AUTO 24011KT 9999 DZRA FEW018 BKN025 BKN030 18/14 Q1004 BLU
Conditions at: EHLW (LEEUWARDEN RNLAF, NL) observed 1429 UTC 18 August 2019
Temperature: 18.0°C (64°F)
Dewpoint: 14.0°C (57°F) [RH = 77%]
Pressure (altimeter): 29.65 inches Hg (1004.0 mb)
Winds: from the WSW (240 degrees) at 13 MPH (11 knots; 5.7 m/s)
Visibility: 6 or more miles (10+ km)
Ceiling: 2500 feet AGL
Clouds: few clouds at 1800 feet AGL
broken clouds at 2500 feet AGL
broken clouds at 3000 feet AGL
Weather: DZ RA  (moderate drizzle, moderate rain)

METAR text: EHLW 181425Z AUTO 25012KT 210V280 9999 SCT017 BKN024 BKN028 18/14 Q1004 WHT
Conditions at: EHLW (LEEUWARDEN RNLAF, NL) observed 1425 UTC 18 August 2019
Temperature: 18.0°C (64°F)
Dewpoint: 14.0°C (57°F) [RH = 77%]
Pressure (altimeter): 29.65 inches Hg (1004.0 mb)
Winds: from the WSW (250 degrees) at 14 MPH (12 knots; 6.2 m/s)
Visibility: 6 or more miles (10+ km)
Ceiling: 2400 feet AGL
Clouds: scattered clouds at 1700 feet AGL
broken clouds at 2400 feet AGL
broken clouds at 2800 feet AGL
Weather: no significant weather observed at this time

METAR text: EHLW 181411Z AUTO 25017KT 200V270 9999 FEW018 SCT023 BKN034 18/14 Q1004 WHT
Conditions at: EHLW (LEEUWARDEN RNLAF, NL) observed 1411 UTC 18 August 2019
Temperature: 18.0°C (64°F)
Dewpoint: 14.0°C (57°F) [RH = 77%]
Pressure (altimeter): 29.65 inches Hg (1004.0 mb)
Winds: from the WSW (250 degrees) at 20 MPH (17 knots; 8.7 m/s)
Visibility: 6 or more miles (10+ km)
Ceiling: 3400 feet AGL
Clouds: few clouds at 1800 feet AGL
scattered clouds at 2300 feet AGL
broken clouds at 3400 feet AGL
Weather: no significant weather observed at this time

METAR text: EHLW 181404Z AUTO 25016KT 200V280 9999 FEW018 SCT025 BKN035 19/14 Q1004 BLU
Conditions at: EHLW (LEEUWARDEN RNLAF, NL) observed 1404 UTC 18 August 2019
Temperature: 19.0°C (66°F)
Dewpoint: 14.0°C (57°F) [RH = 73%]
Pressure (altimeter): 29.65 inches Hg (1004.0 mb)
Winds: from the WSW (250 degrees) at 18 MPH (16 knots; 8.2 m/s)
Visibility: 6 or more miles (10+ km)
Ceiling: 3500 feet AGL
Clouds: few clouds at 1800 feet AGL
scattered clouds at 2500 feet AGL
broken clouds at 3500 feet AGL
Weather: no significant weather observed at this time

METAR text: EHLW 181355Z AUTO 23012KT 9999 BKN017 BKN022 BKN027 19/15 Q1004 WHT
Conditions at: EHLW (LEEUWARDEN RNLAF, NL) observed 1355 UTC 18 August 2019
Temperature: 19.0°C (66°F)
Dewpoint: 15.0°C (59°F) [RH = 78%]
Pressure (altimeter): 29.65 inches Hg (1004.0 mb)
Winds: from the SW (230 degrees) at 14 MPH (12 knots; 6.2 m/s)
Visibility: 6 or more miles (10+ km)
Ceiling: 1700 feet AGL
Clouds: broken clouds at 1700 feet AGL
broken clouds at 2200 feet AGL
broken clouds at 2700 feet AGL
Weather: no significant weather observed at this time

METAR text: EHLW 181340Z AUTO 23012KT 9999 FEW021 SCT024 BKN036 18/14 Q1004 WHT
Conditions at: EHLW (LEEUWARDEN RNLAF, NL) observed 1340 UTC 18 August 2019
Temperature: 18.0°C (64°F)
Dewpoint: 14.0°C (57°F) [RH = 77%]
Pressure (altimeter): 29.65 inches Hg (1004.0 mb)
Winds: from the SW (230 degrees) at 14 MPH (12 knots; 6.2 m/s)
Visibility: 6 or more miles (10+ km)
Ceiling: 3600 feet AGL
Clouds: few clouds at 2100 feet AGL
scattered clouds at 2400 feet AGL
broken clouds at 3600 feet AGL
Weather: no significant weather observed at this time

METAR text: EHLW 181325Z AUTO 23013KT 9999 FEW019 OVC066 18/14 Q1004 BLU
Conditions at: EHLW (LEEUWARDEN RNLAF, NL) observed 1325 UTC 18 August 2019
Temperature: 18.0°C (64°F)
Dewpoint: 14.0°C (57°F) [RH = 77%]
Pressure (altimeter): 29.65 inches Hg (1004.0 mb)
Winds: from the SW (230 degrees) at 15 MPH (13 knots; 6.7 m/s)
Visibility: 6 or more miles (10+ km)
Ceiling: 6600 feet AGL
Clouds: few clouds at 1900 feet AGL
overcast cloud deck at 6600 feet AGL
Weather: no significant weather observed at this time

METAR text: EHLW 181311Z AUTO 23013KT 9999 FEW016 SCT025 BKN051 18/15 Q1004 BLU
Conditions at: EHLW (LEEUWARDEN RNLAF, NL) observed 1311 UTC 18 August 2019
Temperature: 18.0°C (64°F)
Dewpoint: 15.0°C (59°F) [RH = 83%]
Pressure (altimeter): 29.65 inches Hg (1004.0 mb)
Winds: from the SW (230 degrees) at 15 MPH (13 knots; 6.7 m/s)
Visibility: 6 or more miles (10+ km)
Ceiling: 5100 feet AGL
Clouds: few clouds at 1600 feet AGL
scattered clouds at 2500 feet AGL
broken clouds at 5100 feet AGL
Weather: no significant weather observed at this time

METAR text: EHLW 181255Z AUTO 23011KT 190V250 9999 SCT019 SCT022 BKN052 18/14 Q1004 WHT
Conditions at: EHLW (LEEUWARDEN RNLAF, NL) observed 1255 UTC 18 August 2019
Temperature: 18.0°C (64°F)
Dewpoint: 14.0°C (57°F) [RH = 77%]
Pressure (altimeter): 29.65 inches Hg (1004.0 mb)
Winds: from the SW (230 degrees) at 13 MPH (11 knots; 5.7 m/s)
Visibility: 6 or more miles (10+ km)
Ceiling: 5200 feet AGL
Clouds: scattered clouds at 1900 feet AGL
scattered clouds at 2200 feet AGL
broken clouds at 5200 feet AGL
Weather: no significant weather observed at this time

METAR text: EHLW 181225Z AUTO 22012KT 9999 SCT016 SCT023 BKN052 18/15 Q1003 WHT
Conditions at: EHLW (LEEUWARDEN RNLAF, NL) observed 1225 UTC 18 August 2019
Temperature: 18.0°C (64°F)
Dewpoint: 15.0°C (59°F) [RH = 83%]
Pressure (altimeter): 29.62 inches Hg (1003.0 mb)
Winds: from the SW (220 degrees) at 14 MPH (12 knots; 6.2 m/s)
Visibility: 6 or more miles (10+ km)
Ceiling: 5200 feet AGL
Clouds: scattered clouds at 1600 feet AGL
scattered clouds at 2300 feet AGL
broken clouds at 5200 feet AGL
Weather: no significant weather observed at this time

METAR text: EHLW 181211Z AUTO 23011KT 180V250 9999 FEW017 SCT022 OVC047 18/15 Q1003 WHT
Conditions at: EHLW (LEEUWARDEN RNLAF, NL) observed 1211 UTC 18 August 2019
Temperature: 18.0°C (64°F)
Dewpoint: 15.0°C (59°F) [RH = 83%]
Pressure (altimeter): 29.62 inches Hg (1003.0 mb)
Winds: from the SW (230 degrees) at 13 MPH (11 knots; 5.7 m/s)
Visibility: 6 or more miles (10+ km)
Ceiling: 4700 feet AGL
Clouds: few clouds at 1700 feet AGL
scattered clouds at 2200 feet AGL
overcast cloud deck at 4700 feet AGL
Weather: no significant weather observed at this time

METAR text: EHLW 181201Z AUTO 22012KT 190V250 9999 FEW018 SCT029 OVC052 18/14 Q1003 BLU
Conditions at: EHLW (LEEUWARDEN RNLAF, NL) observed 1201 UTC 18 August 2019
Temperature: 18.0°C (64°F)
Dewpoint: 14.0°C (57°F) [RH = 77%]
Pressure (altimeter): 29.62 inches Hg (1003.0 mb)
Winds: from the SW (220 degrees) at 14 MPH (12 knots; 6.2 m/s)
Visibility: 6 or more miles (10+ km)
Ceiling: 5200 feet AGL
Clouds: few clouds at 1800 feet AGL
scattered clouds at 2900 feet AGL
overcast cloud deck at 5200 feet AGL
Weather: no significant weather observed at this time

METAR text: EHLW 181155Z AUTO 23011KT 9999 FEW017 SCT021 BKN028 19/15 Q1003 WHT
Conditions at: EHLW (LEEUWARDEN RNLAF, NL) observed 1155 UTC 18 August 2019
Temperature: 19.0°C (66°F)
Dewpoint: 15.0°C (59°F) [RH = 78%]
Pressure (altimeter): 29.62 inches Hg (1003.0 mb)
Winds: from the SW (230 degrees) at 13 MPH (11 knots; 5.7 m/s)
Visibility: 6 or more miles (10+ km)
Ceiling: 2800 feet AGL
Clouds: few clouds at 1700 feet AGL
scattered clouds at 2100 feet AGL
broken clouds at 2800 feet AGL
Weather: no significant weather observed at this time

METAR text: EHLW 181129Z AUTO 21012KT 160V240 9999 SCT015 BKN019 BKN024 18/15 Q1003 WHT
Conditions at: EHLW (LEEUWARDEN RNLAF, NL) observed 1129 UTC 18 August 2019
Temperature: 18.0°C (64°F)
Dewpoint: 15.0°C (59°F) [RH = 83%]
Pressure (altimeter): 29.62 inches Hg (1003.0 mb)
Winds: from the SSW (210 degrees) at 14 MPH (12 knots; 6.2 m/s)
Visibility: 6 or more miles (10+ km)
Ceiling: 1900 feet AGL
Clouds: scattered clouds at 1500 feet AGL
broken clouds at 1900 feet AGL
broken clouds at 2400 feet AGL
Weather: no significant weather observed at this time

METAR text: EHLW 181125Z AUTO 21012KT 160V230 9999 SCT014 BKN017 BKN023 18/15 Q1003 GRN
Conditions at: EHLW (LEEUWARDEN RNLAF, NL) observed 1125 UTC 18 August 2019
Temperature: 18.0°C (64°F)
Dewpoint: 15.0°C (59°F) [RH = 83%]
Pressure (altimeter): 29.62 inches Hg (1003.0 mb)
Winds: from the SSW (210 degrees) at 14 MPH (12 knots; 6.2 m/s)
Visibility: 6 or more miles (10+ km)
Ceiling: 1700 feet AGL
Clouds: scattered clouds at 1400 feet AGL
broken clouds at 1700 feet AGL
broken clouds at 2300 feet AGL
Weather: no significant weather observed at this time

METAR text: EHLW 181113Z AUTO 22012KT 170V230 9999 SCT014 OVC016 18/15 Q1003 GRN
Conditions at: EHLW (LEEUWARDEN RNLAF, NL) observed 1113 UTC 18 August 2019
Temperature: 18.0°C (64°F)
Dewpoint: 15.0°C (59°F) [RH = 83%]
Pressure (altimeter): 29.62 inches Hg (1003.0 mb)
Winds: from the SW (220 degrees) at 14 MPH (12 knots; 6.2 m/s)
Visibility: 6 or more miles (10+ km)
Ceiling: 1600 feet AGL
Clouds: scattered clouds at 1400 feet AGL
overcast cloud deck at 1600 feet AGL
Weather: no significant weather observed at this time

METAR text: EHLW 181106Z AUTO 22012KT 170V240 9999 SCT014 BKN016 BKN021 18/15 Q1003 GRN
Conditions at: EHLW (LEEUWARDEN RNLAF, NL) observed 1106 UTC 18 August 2019
Temperature: 18.0°C (64°F)
Dewpoint: 15.0°C (59°F) [RH = 83%]
Pressure (altimeter): 29.62 inches Hg (1003.0 mb)
Winds: from the SW (220 degrees) at 14 MPH (12 knots; 6.2 m/s)
Visibility: 6 or more miles (10+ km)
Ceiling: 1600 feet AGL
Clouds: scattered clouds at 1400 feet AGL
broken clouds at 1600 feet AGL
broken clouds at 2100 feet AGL
Weather: no significant weather observed at this time

METAR text: EHLW 181102Z AUTO 22012KT 170V240 9999 SCT014 SCT017 BKN023 18/15 Q1003 GRN
Conditions at: EHLW (LEEUWARDEN RNLAF, NL) observed 1102 UTC 18 August 2019
Temperature: 18.0°C (64°F)
Dewpoint: 15.0°C (59°F) [RH = 83%]
Pressure (altimeter): 29.62 inches Hg (1003.0 mb)
Winds: from the SW (220 degrees) at 14 MPH (12 knots; 6.2 m/s)
Visibility: 6 or more miles (10+ km)
Ceiling: 2300 feet AGL
Clouds: scattered clouds at 1400 feet AGL
scattered clouds at 1700 feet AGL
broken clouds at 2300 feet AGL
Weather: no significant weather observed at this time

METAR text: EHLW 181059Z AUTO 22012KT 160V240 9999 FEW012 SCT016 BKN020 18/15 Q1003 WHT
Conditions at: EHLW (LEEUWARDEN RNLAF, NL) observed 1059 UTC 18 August 2019
Temperature: 18.0°C (64°F)
Dewpoint: 15.0°C (59°F) [RH = 83%]
Pressure (altimeter): 29.62 inches Hg (1003.0 mb)
Winds: from the SW (220 degrees) at 14 MPH (12 knots; 6.2 m/s)
Visibility: 6 or more miles (10+ km)
Ceiling: 2000 feet AGL
Clouds: few clouds at 1200 feet AGL
scattered clouds at 1600 feet AGL
broken clouds at 2000 feet AGL
Weather: no significant weather observed at this time

METAR text: EHLW 181055Z AUTO 21011KT 160V230 9999 SCT012 BKN016 BKN020 18/15 Q1003 GRN
Conditions at: EHLW (LEEUWARDEN RNLAF, NL) observed 1055 UTC 18 August 2019
Temperature: 18.0°C (64°F)
Dewpoint: 15.0°C (59°F) [RH = 83%]
Pressure (altimeter): 29.62 inches Hg (1003.0 mb)
Winds: from the SSW (210 degrees) at 13 MPH (11 knots; 5.7 m/s)
Visibility: 6 or more miles (10+ km)
Ceiling: 1600 feet AGL
Clouds: scattered clouds at 1200 feet AGL
broken clouds at 1600 feet AGL
broken clouds at 2000 feet AGL
Weather: no significant weather observed at this time

METAR text: EHLW 181048Z AUTO 21011KT 160V240 9999 SCT012 BKN015 BKN018 18/15 Q1003 GRN
Conditions at: EHLW (LEEUWARDEN RNLAF, NL) observed 1048 UTC 18 August 2019
Temperature: 18.0°C (64°F)
Dewpoint: 15.0°C (59°F) [RH = 83%]
Pressure (altimeter): 29.62 inches Hg (1003.0 mb)
Winds: from the SSW (210 degrees) at 13 MPH (11 knots; 5.7 m/s)
Visibility: 6 or more miles (10+ km)
Ceiling: 1500 feet AGL
Clouds: scattered clouds at 1200 feet AGL
broken clouds at 1500 feet AGL
broken clouds at 1800 feet AGL
Weather: no significant weather observed at this time

METAR text: EHLW 181044Z AUTO 21010KT 170V240 9999 SCT013 SCT016 BKN024 18/15 Q1003 GRN
Conditions at: EHLW (LEEUWARDEN RNLAF, NL) observed 1044 UTC 18 August 2019
Temperature: 18.0°C (64°F)
Dewpoint: 15.0°C (59°F) [RH = 83%]
Pressure (altimeter): 29.62 inches Hg (1003.0 mb)
Winds: from the SSW (210 degrees) at 12 MPH (10 knots; 5.1 m/s)
Visibility: 6 or more miles (10+ km)
Ceiling: 2400 feet AGL
Clouds: scattered clouds at 1300 feet AGL
scattered clouds at 1600 feet AGL
broken clouds at 2400 feet AGL
Weather: no significant weather observed at this time

METAR text: EHLW 181038Z AUTO 21011KT 160V230 9999 -DZ FEW010 BKN015 BKN026 17/15 Q1003 WHT
Conditions at: EHLW (LEEUWARDEN RNLAF, NL) observed 1038 UTC 18 August 2019
Temperature: 17.0°C (63°F)
Dewpoint: 15.0°C (59°F) [RH = 88%]
Pressure (altimeter): 29.62 inches Hg (1003.0 mb)
Winds: from the SSW (210 degrees) at 13 MPH (11 knots; 5.7 m/s)
Visibility: 6 or more miles (10+ km)
Ceiling: 1500 feet AGL
Clouds: few clouds at 1000 feet AGL
broken clouds at 1500 feet AGL
broken clouds at 2600 feet AGL
Weather: -DZ  (light drizzle)

METAR text: EHLW 181030Z AUTO 21010KT 160V230 9999 DZ FEW010 SCT014 FEW015CB BKN018 17/16 Q1003 GRN
Conditions at: EHLW (LEEUWARDEN RNLAF, NL) observed 1030 UTC 18 August 2019
Temperature: 17.0°C (63°F)
Dewpoint: 16.0°C (61°F) [RH = 94%]
Pressure (altimeter): 29.62 inches Hg (1003.0 mb)
Winds: from the SSW (210 degrees) at 12 MPH (10 knots; 5.1 m/s)
Visibility: 6 or more miles (10+ km)
Ceiling: 1800 feet AGL
Clouds: few clouds at 1000 feet AGL
scattered clouds at 1400 feet AGL
few clouds at 1500 feet AGL
broken clouds at 1800 feet AGL
Weather: DZ  (moderate drizzle)

METAR text: EHLW 181029Z AUTO 21009KT 160V230 9999 DZRA FEW011 FEW015CB SCT049 BKN077 17/15 Q1003 BLU
Conditions at: EHLW (LEEUWARDEN RNLAF, NL) observed 1029 UTC 18 August 2019
Temperature: 17.0°C (63°F)
Dewpoint: 15.0°C (59°F) [RH = 88%]
Pressure (altimeter): 29.62 inches Hg (1003.0 mb)
Winds: from the SSW (210 degrees) at 10 MPH (9 knots; 4.6 m/s)
Visibility: 6 or more miles (10+ km)
Ceiling: 7700 feet AGL
Clouds: few clouds at 1100 feet AGL
few clouds at 1500 feet AGL
scattered clouds at 4900 feet AGL
broken clouds at 7700 feet AGL
Weather: DZ RA  (moderate drizzle, moderate rain)

METAR text: EHLW 181025Z AUTO 21009KT 160V230 9999 -RA FEW013 FEW015CB BKN047 BKN077 17/15 Q1003 RERA REDZ BLU
Conditions at: EHLW (LEEUWARDEN RNLAF, NL) observed 1025 UTC 18 August 2019
Temperature: 17.0°C (63°F)
Dewpoint: 15.0°C (59°F) [RH = 88%]
Pressure (altimeter): 29.62 inches Hg (1003.0 mb)
Winds: from the SSW (210 degrees) at 10 MPH (9 knots; 4.6 m/s)
Visibility: 6 or more miles (10+ km)
Ceiling: 4700 feet AGL
Clouds: few clouds at 1300 feet AGL
few clouds at 1500 feet AGL
broken clouds at 4700 feet AGL
broken clouds at 7700 feet AGL
Weather: -RA  (light rain)

METAR text: EHLW 181010Z AUTO 21010KT 150V230 9999 FEW010 FEW015CB BKN051 OVC062 17/15 Q1003 BLU
Conditions at: EHLW (LEEUWARDEN RNLAF, NL) observed 1010 UTC 18 August 2019
Temperature: 17.0°C (63°F)
Dewpoint: 15.0°C (59°F) [RH = 88%]
Pressure (altimeter): 29.62 inches Hg (1003.0 mb)
Winds: from the SSW (210 degrees) at 12 MPH (10 knots; 5.1 m/s)
Visibility: 6 or more miles (10+ km)
Ceiling: 5100 feet AGL
Clouds: few clouds at 1000 feet AGL
few clouds at 1500 feet AGL
broken clouds at 5100 feet AGL
overcast cloud deck at 6200 feet AGL
Weather: no significant weather observed at this time

METAR text: EHLW 181009Z AUTO 20009KT 140V230 9999 FEW010 SCT015CB BKN053 17/15 Q1003 WHT
Conditions at: EHLW (LEEUWARDEN RNLAF, NL) observed 1009 UTC 18 August 2019
Temperature: 17.0°C (63°F)
Dewpoint: 15.0°C (59°F) [RH = 88%]
Pressure (altimeter): 29.62 inches Hg (1003.0 mb)
Winds: from the SSW (200 degrees) at 10 MPH (9 knots; 4.6 m/s)
Visibility: 6 or more miles (10+ km)
Ceiling: 5300 feet AGL
Clouds: few clouds at 1000 feet AGL
scattered clouds at 1500 feet AGL
broken clouds at 5300 feet AGL
Weather: no significant weather observed at this time

METAR text: EHLW 181003Z AUTO 20008KT 140V230 9999 FEW010 SCT013 BKN053 17/15 Q1003 GRN
Conditions at: EHLW (LEEUWARDEN RNLAF, NL) observed 1003 UTC 18 August 2019
Temperature: 17.0°C (63°F)
Dewpoint: 15.0°C (59°F) [RH = 88%]
Pressure (altimeter): 29.62 inches Hg (1003.0 mb)
Winds: from the SSW (200 degrees) at 9 MPH (8 knots; 4.1 m/s)
Visibility: 6 or more miles (10+ km)
Ceiling: 5300 feet AGL
Clouds: few clouds at 1000 feet AGL
scattered clouds at 1300 feet AGL
broken clouds at 5300 feet AGL
Weather: no significant weather observed at this time

METAR text: EHLW 180959Z AUTO 20009KT 150V230 9999 FEW011 SCT016 OVC052 17/15 Q1003 WHT
Conditions at: EHLW (LEEUWARDEN RNLAF, NL) observed 0959 UTC 18 August 2019
Temperature: 17.0°C (63°F)
Dewpoint: 15.0°C (59°F) [RH = 88%]
Pressure (altimeter): 29.62 inches Hg (1003.0 mb)
Winds: from the SSW (200 degrees) at 10 MPH (9 knots; 4.6 m/s)
Visibility: 6 or more miles (10+ km)
Ceiling: 5200 feet AGL
Clouds: few clouds at 1100 feet AGL
scattered clouds at 1600 feet AGL
overcast cloud deck at 5200 feet AGL
Weather: no significant weather observed at this time

METAR text: EHLW 180955Z AUTO 20009KT 150V230 9999 FEW013 SCT029 BKN047 17/15 Q1003 BLU
Conditions at: EHLW (LEEUWARDEN RNLAF, NL) observed 0955 UTC 18 August 2019
Temperature: 17.0°C (63°F)
Dewpoint: 15.0°C (59°F) [RH = 88%]
Pressure (altimeter): 29.62 inches Hg (1003.0 mb)
Winds: from the SSW (200 degrees) at 10 MPH (9 knots; 4.6 m/s)
Visibility: 6 or more miles (10+ km)
Ceiling: 4700 feet AGL
Clouds: few clouds at 1300 feet AGL
scattered clouds at 2900 feet AGL
broken clouds at 4700 feet AGL
Weather: no significant weather observed at this time

METAR text: EHLW 180945Z AUTO 20010KT 160V230 9999 -DZ FEW015CB SCT029 OVC041 17/15 Q1003 BLU
Conditions at: EHLW (LEEUWARDEN RNLAF, NL) observed 0945 UTC 18 August 2019
Temperature: 17.0°C (63°F)
Dewpoint: 15.0°C (59°F) [RH = 88%]
Pressure (altimeter): 29.62 inches Hg (1003.0 mb)
Winds: from the SSW (200 degrees) at 12 MPH (10 knots; 5.1 m/s)
Visibility: 6 or more miles (10+ km)
Ceiling: 4100 feet AGL
Clouds: few clouds at 1500 feet AGL
scattered clouds at 2900 feet AGL
overcast cloud deck at 4100 feet AGL
Weather: -DZ  (light drizzle)

METAR text: EHLW 180939Z AUTO 20008KT 150V230 9999 -DZRA FEW013 FEW015CB SCT034 BKN039 17/15 Q1003 BLU
Conditions at: EHLW (LEEUWARDEN RNLAF, NL) observed 0939 UTC 18 August 2019
Temperature: 17.0°C (63°F)
Dewpoint: 15.0°C (59°F) [RH = 88%]
Pressure (altimeter): 29.62 inches Hg (1003.0 mb)
Winds: from the SSW (200 degrees) at 9 MPH (8 knots; 4.1 m/s)
Visibility: 6 or more miles (10+ km)
Ceiling: 3900 feet AGL
Clouds: few clouds at 1300 feet AGL
few clouds at 1500 feet AGL
scattered clouds at 3400 feet AGL
broken clouds at 3900 feet AGL
Weather: -DZ -RA  (light drizzle, light rain)

METAR text: EHLW 180925Z AUTO 19007KT 140V220 9999 FEW022 BKN026 OVC029 16/15 Q1003 REDZ BLU
Conditions at: EHLW (LEEUWARDEN RNLAF, NL) observed 0925 UTC 18 August 2019
Temperature: 16.0°C (61°F)
Dewpoint: 15.0°C (59°F) [RH = 94%]
Pressure (altimeter): 29.62 inches Hg (1003.0 mb)
Winds: from the S (190 degrees) at 8 MPH (7 knots; 3.6 m/s)
Visibility: 6 or more miles (10+ km)
Ceiling: 2600 feet AGL
Clouds: few clouds at 2200 feet AGL
broken clouds at 2600 feet AGL
overcast cloud deck at 2900 feet AGL
Weather: no significant weather observed at this time

METAR text: EHLW 180906Z AUTO 20007KT 160V230 9999 DZ FEW019 SCT022 BKN026 16/14 Q1003 WHT
Conditions at: EHLW (LEEUWARDEN RNLAF, NL) observed 0906 UTC 18 August 2019
Temperature: 16.0°C (61°F)
Dewpoint: 14.0°C (57°F) [RH = 88%]
Pressure (altimeter): 29.62 inches Hg (1003.0 mb)
Winds: from the SSW (200 degrees) at 8 MPH (7 knots; 3.6 m/s)
Visibility: 6 or more miles (10+ km)
Ceiling: 2600 feet AGL
Clouds: few clouds at 1900 feet AGL
scattered clouds at 2200 feet AGL
broken clouds at 2600 feet AGL
Weather: DZ  (moderate drizzle)

METAR text: EHLW 180905Z AUTO 20008KT 160V230 9999 +DZ FEW019 SCT026 BKN029 16/14 Q1003 BLU
Conditions at: EHLW (LEEUWARDEN RNLAF, NL) observed 0905 UTC 18 August 2019
Temperature: 16.0°C (61°F)
Dewpoint: 14.0°C (57°F) [RH = 88%]
Pressure (altimeter): 29.62 inches Hg (1003.0 mb)
Winds: from the SSW (200 degrees) at 9 MPH (8 knots; 4.1 m/s)
Visibility: 6 or more miles (10+ km)
Ceiling: 2900 feet AGL
Clouds: few clouds at 1900 feet AGL
scattered clouds at 2600 feet AGL
broken clouds at 2900 feet AGL
Weather: +DZ  (heavy drizzle)

METAR text: EHLW 180901Z AUTO 20008KT 170V230 6000 +DZ FEW015CB BKN026 BKN030 16/14 Q1003 WHT
Conditions at: EHLW (LEEUWARDEN RNLAF, NL) observed 0901 UTC 18 August 2019
Temperature: 16.0°C (61°F)
Dewpoint: 14.0°C (57°F) [RH = 88%]
Pressure (altimeter): 29.62 inches Hg (1003.0 mb)
Winds: from the SSW (200 degrees) at 9 MPH (8 knots; 4.1 m/s)
Visibility: 4 miles ( 6 km)
Ceiling: 2600 feet AGL
Clouds: few clouds at 1500 feet AGL
broken clouds at 2600 feet AGL
broken clouds at 3000 feet AGL
Weather: +DZ  (heavy drizzle)

METAR text: EHLW 180855Z AUTO 20008KT 160V220 9999 -DZ FEW015CB OVC026 16/14 Q1003 REDZ BLU
Conditions at: EHLW (LEEUWARDEN RNLAF, NL) observed 0855 UTC 18 August 2019
Temperature: 16.0°C (61°F)
Dewpoint: 14.0°C (57°F) [RH = 88%]
Pressure (altimeter): 29.62 inches Hg (1003.0 mb)
Winds: from the SSW (200 degrees) at 9 MPH (8 knots; 4.1 m/s)
Visibility: 6 or more miles (10+ km)
Ceiling: 2600 feet AGL
Clouds: few clouds at 1500 feet AGL
overcast cloud deck at 2600 feet AGL
Weather: -DZ  (light drizzle)

METAR text: EHLW 180839Z AUTO 21010KT 170V230 9999 DZ BKN044 OVC049 16/14 Q1003 BLU
Conditions at: EHLW (LEEUWARDEN RNLAF, NL) observed 0839 UTC 18 August 2019
Temperature: 16.0°C (61°F)
Dewpoint: 14.0°C (57°F) [RH = 88%]
Pressure (altimeter): 29.62 inches Hg (1003.0 mb)
Winds: from the SSW (210 degrees) at 12 MPH (10 knots; 5.1 m/s)
Visibility: 6 or more miles (10+ km)
Ceiling: 4400 feet AGL
Clouds: broken clouds at 4400 feet AGL
overcast cloud deck at 4900 feet AGL
Weather: DZ  (moderate drizzle)

METAR text: EHLW 180825Z AUTO 21010KT 160V230 9999 -DZ SCT033 BKN037 OVC042 17/15 Q1003 REDZ BLU
Conditions at: EHLW (LEEUWARDEN RNLAF, NL) observed 0825 UTC 18 August 2019
Temperature: 17.0°C (63°F)
Dewpoint: 15.0°C (59°F) [RH = 88%]
Pressure (altimeter): 29.62 inches Hg (1003.0 mb)
Winds: from the SSW (210 degrees) at 12 MPH (10 knots; 5.1 m/s)
Visibility: 6 or more miles (10+ km)
Ceiling: 3700 feet AGL
Clouds: scattered clouds at 3300 feet AGL
broken clouds at 3700 feet AGL
overcast cloud deck at 4200 feet AGL
Weather: -DZ  (light drizzle)

METAR text: EHLW 180818Z AUTO 21010KT 9000 DZ FEW009 BKN035 OVC039 17/15 Q1003 BLU
Conditions at: EHLW (LEEUWARDEN RNLAF, NL) observed 0818 UTC 18 August 2019
Temperature: 17.0°C (63°F)
Dewpoint: 15.0°C (59°F) [RH = 88%]
Pressure (altimeter): 29.62 inches Hg (1003.0 mb)
Winds: from the SSW (210 degrees) at 12 MPH (10 knots; 5.1 m/s)
Visibility: 6 miles ( 9 km)
Ceiling: 3500 feet AGL
Clouds: few clouds at 900 feet AGL
broken clouds at 3500 feet AGL
overcast cloud deck at 3900 feet AGL
Weather: DZ  (moderate drizzle)

METAR text: EHLW 180816Z AUTO 21009KT 170V230 7000 DZ FEW009 SCT011 BKN037 17/15 Q1003 GRN
Conditions at: EHLW (LEEUWARDEN RNLAF, NL) observed 0816 UTC 18 August 2019
Temperature: 17.0°C (63°F)
Dewpoint: 15.0°C (59°F) [RH = 88%]
Pressure (altimeter): 29.62 inches Hg (1003.0 mb)
Winds: from the SSW (210 degrees) at 10 MPH (9 knots; 4.6 m/s)
Visibility: 4 miles ( 7 km)
Ceiling: 3700 feet AGL
Clouds: few clouds at 900 feet AGL
scattered clouds at 1100 feet AGL
broken clouds at 3700 feet AGL
Weather: DZ  (moderate drizzle)

METAR text: EHLW 180813Z AUTO 21009KT 170V230 9999 -DZ FEW009 SCT011 BKN016 17/15 Q1003 GRN
Conditions at: EHLW (LEEUWARDEN RNLAF, NL) observed 0813 UTC 18 August 2019
Temperature: 17.0°C (63°F)
Dewpoint: 15.0°C (59°F) [RH = 88%]
Pressure (altimeter): 29.62 inches Hg (1003.0 mb)
Winds: from the SSW (210 degrees) at 10 MPH (9 knots; 4.6 m/s)
Visibility: 6 or more miles (10+ km)
Ceiling: 1600 feet AGL
Clouds: few clouds at 900 feet AGL
scattered clouds at 1100 feet AGL
broken clouds at 1600 feet AGL
Weather: -DZ  (light drizzle)

METAR text: EHLW 180757Z AUTO 20008KT 140V220 9999 -DZ FEW006 SCT007 BKN009 17/16 Q1003 GRN
Conditions at: EHLW (LEEUWARDEN RNLAF, NL) observed 0757 UTC 18 August 2019
Temperature: 17.0°C (63°F)
Dewpoint: 16.0°C (61°F) [RH = 94%]
Pressure (altimeter): 29.62 inches Hg (1003.0 mb)
Winds: from the SSW (200 degrees) at 9 MPH (8 knots; 4.1 m/s)
Visibility: 6 or more miles (10+ km)
Ceiling: 900 feet AGL
Clouds: few clouds at 600 feet AGL
scattered clouds at 700 feet AGL
broken clouds at 900 feet AGL
Weather: -DZ  (light drizzle)

METAR text: EHLW 180755Z AUTO 20008KT 140V230 9999 DZ SCT006 BKN007 BKN009 17/16 Q1003 YLO
Conditions at: EHLW (LEEUWARDEN RNLAF, NL) observed 0755 UTC 18 August 2019
Temperature: 17.0°C (63°F)
Dewpoint: 16.0°C (61°F) [RH = 94%]
Pressure (altimeter): 29.62 inches Hg (1003.0 mb)
Winds: from the SSW (200 degrees) at 9 MPH (8 knots; 4.1 m/s)
Visibility: 6 or more miles (10+ km)
Ceiling: 700 feet AGL
Clouds: scattered clouds at 600 feet AGL
broken clouds at 700 feet AGL
broken clouds at 900 feet AGL
Weather: DZ  (moderate drizzle)

METAR text: EHLW 180742Z AUTO 20008KT 140V230 9999 DZ SCT007 BKN008 BKN009 17/15 Q1003 GRN
Conditions at: EHLW (LEEUWARDEN RNLAF, NL) observed 0742 UTC 18 August 2019
Temperature: 17.0°C (63°F)
Dewpoint: 15.0°C (59°F) [RH = 88%]
Pressure (altimeter): 29.62 inches Hg (1003.0 mb)
Winds: from the SSW (200 degrees) at 9 MPH (8 knots; 4.1 m/s)
Visibility: 6 or more miles (10+ km)
Ceiling: 800 feet AGL
Clouds: scattered clouds at 700 feet AGL
broken clouds at 800 feet AGL
broken clouds at 900 feet AGL
Weather: DZ  (moderate drizzle)

METAR text: EHLW 180741Z AUTO 19010KT 140V230 9999 DZ SCT007 SCT009 BKN011 16/15 Q1003 GRN
Conditions at: EHLW (LEEUWARDEN RNLAF, NL) observed 0741 UTC 18 August 2019
Temperature: 16.0°C (61°F)
Dewpoint: 15.0°C (59°F) [RH = 94%]
Pressure (altimeter): 29.62 inches Hg (1003.0 mb)
Winds: from the S (190 degrees) at 12 MPH (10 knots; 5.1 m/s)
Visibility: 6 or more miles (10+ km)
Ceiling: 1100 feet AGL
Clouds: scattered clouds at 700 feet AGL
scattered clouds at 900 feet AGL
broken clouds at 1100 feet AGL
Weather: DZ  (moderate drizzle)

METAR text: EHLW 180729Z AUTO 18010KT 140V210 9999 -DZRA FEW006 SCT009 BKN010 16/15 Q1003 GRN
Conditions at: EHLW (LEEUWARDEN RNLAF, NL) observed 0729 UTC 18 August 2019
Temperature: 16.0°C (61°F)
Dewpoint: 15.0°C (59°F) [RH = 94%]
Pressure (altimeter): 29.62 inches Hg (1003.0 mb)
Winds: from the S (180 degrees) at 12 MPH (10 knots; 5.1 m/s)
Visibility: 6 or more miles (10+ km)
Ceiling: 1000 feet AGL
Clouds: few clouds at 600 feet AGL
scattered clouds at 900 feet AGL
broken clouds at 1000 feet AGL
Weather: -DZ -RA  (light drizzle, light rain)

METAR text: EHLW 180725Z AUTO 18010KT 150V220 9999 FEW006 SCT007 BKN008 16/15 Q1003 GRN
Conditions at: EHLW (LEEUWARDEN RNLAF, NL) observed 0725 UTC 18 August 2019
Temperature: 16.0°C (61°F)
Dewpoint: 15.0°C (59°F) [RH = 94%]
Pressure (altimeter): 29.62 inches Hg (1003.0 mb)
Winds: from the S (180 degrees) at 12 MPH (10 knots; 5.1 m/s)
Visibility: 6 or more miles (10+ km)
Ceiling: 800 feet AGL
Clouds: few clouds at 600 feet AGL
scattered clouds at 700 feet AGL
broken clouds at 800 feet AGL
Weather: no significant weather observed at this time

METAR text: EHLW 180720Z AUTO 18009KT 140V210 9999 FEW006 BKN007 BKN008 16/15 Q1003 GRN
Conditions at: EHLW (LEEUWARDEN RNLAF, NL) observed 0720 UTC 18 August 2019
Temperature: 16.0°C (61°F)
Dewpoint: 15.0°C (59°F) [RH = 94%]
Pressure (altimeter): 29.62 inches Hg (1003.0 mb)
Winds: from the S (180 degrees) at 10 MPH (9 knots; 4.6 m/s)
Visibility: 6 or more miles (10+ km)
Ceiling: 700 feet AGL
Clouds: few clouds at 600 feet AGL
broken clouds at 700 feet AGL
broken clouds at 800 feet AGL
Weather: no significant weather observed at this time

METAR text: EHLW 180716Z AUTO 18009KT 140V210 9999 SCT006 SCT007 BKN012 16/15 Q1003 YLO
Conditions at: EHLW (LEEUWARDEN RNLAF, NL) observed 0716 UTC 18 August 2019
Temperature: 16.0°C (61°F)
Dewpoint: 15.0°C (59°F) [RH = 94%]
Pressure (altimeter): 29.62 inches Hg (1003.0 mb)
Winds: from the S (180 degrees) at 10 MPH (9 knots; 4.6 m/s)
Visibility: 6 or more miles (10+ km)
Ceiling: 1200 feet AGL
Clouds: scattered clouds at 600 feet AGL
scattered clouds at 700 feet AGL
broken clouds at 1200 feet AGL
Weather: no significant weather observed at this time

METAR text: EHLW 180711Z AUTO 18009KT 130V210 9999 SCT006 BKN012 BKN016 16/15 Q1003 YLO
Conditions at: EHLW (LEEUWARDEN RNLAF, NL) observed 0711 UTC 18 August 2019
Temperature: 16.0°C (61°F)
Dewpoint: 15.0°C (59°F) [RH = 94%]
Pressure (altimeter): 29.62 inches Hg (1003.0 mb)
Winds: from the S (180 degrees) at 10 MPH (9 knots; 4.6 m/s)
Visibility: 6 or more miles (10+ km)
Ceiling: 1200 feet AGL
Clouds: scattered clouds at 600 feet AGL
broken clouds at 1200 feet AGL
broken clouds at 1600 feet AGL
Weather: no significant weather observed at this time

METAR text: EHLW 180655Z AUTO 17009KT 130V210 9999 FEW008 SCT009 BKN011 16/15 Q1003 GRN
Conditions at: EHLW (LEEUWARDEN RNLAF, NL) observed 0655 UTC 18 August 2019
Temperature: 16.0°C (61°F)
Dewpoint: 15.0°C (59°F) [RH = 94%]
Pressure (altimeter): 29.62 inches Hg (1003.0 mb)
Winds: from the S (170 degrees) at 10 MPH (9 knots; 4.6 m/s)
Visibility: 6 or more miles (10+ km)
Ceiling: 1100 feet AGL
Clouds: few clouds at 800 feet AGL
scattered clouds at 900 feet AGL
broken clouds at 1100 feet AGL
Weather: no significant weather observed at this time

METAR text: EHLW 180648Z AUTO 17008KT 140V210 9999 FEW009 BKN010 BKN013 16/15 Q1003 GRN
Conditions at: EHLW (LEEUWARDEN RNLAF, NL) observed 0648 UTC 18 August 2019
Temperature: 16.0°C (61°F)
Dewpoint: 15.0°C (59°F) [RH = 94%]
Pressure (altimeter): 29.62 inches Hg (1003.0 mb)
Winds: from the S (170 degrees) at 9 MPH (8 knots; 4.1 m/s)
Visibility: 6 or more miles (10+ km)
Ceiling: 1000 feet AGL
Clouds: few clouds at 900 feet AGL
broken clouds at 1000 feet AGL
broken clouds at 1300 feet AGL
Weather: no significant weather observed at this time

METAR text: EHLW 180625Z AUTO 16008KT 140V200 9999 SCT007 OVC008 16/15 Q1003 GRN
Conditions at: EHLW (LEEUWARDEN RNLAF, NL) observed 0625 UTC 18 August 2019
Temperature: 16.0°C (61°F)
Dewpoint: 15.0°C (59°F) [RH = 94%]
Pressure (altimeter): 29.62 inches Hg (1003.0 mb)
Winds: from the SSE (160 degrees) at 9 MPH (8 knots; 4.1 m/s)
Visibility: 6 or more miles (10+ km)
Ceiling: 800 feet AGL
Clouds: scattered clouds at 700 feet AGL
overcast cloud deck at 800 feet AGL
Weather: no significant weather observed at this time

METAR text: EHLW 180555Z AUTO 18008KT 140V200 9999 SCT007 BKN008 OVC009 16/16 Q1003 GRN
Conditions at: EHLW (LEEUWARDEN RNLAF, NL) observed 0555 UTC 18 August 2019
Temperature: 16.0°C (61°F)
Dewpoint: 16.0°C (61°F) [RH = 100%]
Pressure (altimeter): 29.62 inches Hg (1003.0 mb)
Winds: from the S (180 degrees) at 9 MPH (8 knots; 4.1 m/s)
Visibility: 6 or more miles (10+ km)
Ceiling: 800 feet AGL
Clouds: scattered clouds at 700 feet AGL
broken clouds at 800 feet AGL
overcast cloud deck at 900 feet AGL
Weather: no significant weather observed at this time

METAR text: EHLW 180525Z AUTO 18007KT 140V210 9999 BKN008 OVC009 16/15 Q1003 GRN
Conditions at: EHLW (LEEUWARDEN RNLAF, NL) observed 0525 UTC 18 August 2019
Temperature: 16.0°C (61°F)
Dewpoint: 15.0°C (59°F) [RH = 94%]
Pressure (altimeter): 29.62 inches Hg (1003.0 mb)
Winds: from the S (180 degrees) at 8 MPH (7 knots; 3.6 m/s)
Visibility: 6 or more miles (10+ km)
Ceiling: 800 feet AGL
Clouds: broken clouds at 800 feet AGL
overcast cloud deck at 900 feet AGL
Weather: no significant weather observed at this time

METAR text: EHLW 180518Z AUTO 18008KT 140V210 9999 SCT008 BKN009 BKN018 16/15 Q1003 GRN
Conditions at: EHLW (LEEUWARDEN RNLAF, NL) observed 0518 UTC 18 August 2019
Temperature: 16.0°C (61°F)
Dewpoint: 15.0°C (59°F) [RH = 94%]
Pressure (altimeter): 29.62 inches Hg (1003.0 mb)
Winds: from the S (180 degrees) at 9 MPH (8 knots; 4.1 m/s)
Visibility: 6 or more miles (10+ km)
Ceiling: 900 feet AGL
Clouds: scattered clouds at 800 feet AGL
broken clouds at 900 feet AGL
broken clouds at 1800 feet AGL
Weather: no significant weather observed at this time

METAR text: EHLW 180511Z AUTO 18008KT 140V200 9999 FEW008 SCT009 BKN035 16/15 Q1003 GRN
Conditions at: EHLW (LEEUWARDEN RNLAF, NL) observed 0511 UTC 18 August 2019
Temperature: 16.0°C (61°F)
Dewpoint: 15.0°C (59°F) [RH = 94%]
Pressure (altimeter): 29.62 inches Hg (1003.0 mb)
Winds: from the S (180 degrees) at 9 MPH (8 knots; 4.1 m/s)
Visibility: 6 or more miles (10+ km)
Ceiling: 3500 feet AGL
Clouds: few clouds at 800 feet AGL
scattered clouds at 900 feet AGL
broken clouds at 3500 feet AGL
Weather: no significant weather observed at this time

METAR text: EHLW 180510Z AUTO 18007KT 140V200 9999 FEW009 SCT024 OVC098 16/15 Q1003 WHT
Conditions at: EHLW (LEEUWARDEN RNLAF, NL) observed 0510 UTC 18 August 2019
Temperature: 16.0°C (61°F)
Dewpoint: 15.0°C (59°F) [RH = 94%]
Pressure (altimeter): 29.62 inches Hg (1003.0 mb)
Winds: from the S (180 degrees) at 8 MPH (7 knots; 3.6 m/s)
Visibility: 6 or more miles (10+ km)
Ceiling: 9800 feet AGL
Clouds: few clouds at 900 feet AGL
scattered clouds at 2400 feet AGL
overcast cloud deck at 9800 feet AGL
Weather: no significant weather observed at this time

METAR text: EHLW 180455Z AUTO 17006KT 140V200 9000 BR FEW085 OVC100 16/15 Q1003 BLU
Conditions at: EHLW (LEEUWARDEN RNLAF, NL) observed 0455 UTC 18 August 2019
Temperature: 16.0°C (61°F)
Dewpoint: 15.0°C (59°F) [RH = 94%]
Pressure (altimeter): 29.62 inches Hg (1003.0 mb)
Winds: from the S (170 degrees) at 7 MPH (6 knots; 3.1 m/s)
Visibility: 6 miles ( 9 km)
Ceiling: 10000 feet AGL
Clouds: few clouds at 8500 feet AGL
overcast cloud deck at 10000 feet AGL
Weather: BR  (mist)

METAR text: EHLW 180425Z AUTO 17006KT 140V200 9999 SCT091 OVC097 16/15 Q1003 BLU
Conditions at: EHLW (LEEUWARDEN RNLAF, NL) observed 0425 UTC 18 August 2019
Temperature: 16.0°C (61°F)
Dewpoint: 15.0°C (59°F) [RH = 94%]
Pressure (altimeter): 29.62 inches Hg (1003.0 mb)
Winds: from the S (170 degrees) at 7 MPH (6 knots; 3.1 m/s)
Visibility: 6 or more miles (10+ km)
Ceiling: 9700 feet AGL
Clouds: scattered clouds at 9100 feet AGL
overcast cloud deck at 9700 feet AGL
Weather: no significant weather observed at this time

METAR text: EHLW 180400Z AUTO 17006KT 140V200 9999 FEW008 OVC100 16/15 Q1003 BLU
Conditions at: EHLW (LEEUWARDEN RNLAF, NL) observed 0400 UTC 18 August 2019
Temperature: 16.0°C (61°F)
Dewpoint: 15.0°C (59°F) [RH = 94%]
Pressure (altimeter): 29.62 inches Hg (1003.0 mb)
Winds: from the S (170 degrees) at 7 MPH (6 knots; 3.1 m/s)
Visibility: 6 or more miles (10+ km)
Ceiling: 10000 feet AGL
Clouds: few clouds at 800 feet AGL
overcast cloud deck at 10000 feet AGL
Weather: no significant weather observed at this time

METAR text: EHLW 180355Z AUTO 17006KT 140V200 9999 SCT008 OVC100 16/15 Q1003 GRN
Conditions at: EHLW (LEEUWARDEN RNLAF, NL) observed 0355 UTC 18 August 2019
Temperature: 16.0°C (61°F)
Dewpoint: 15.0°C (59°F) [RH = 94%]
Pressure (altimeter): 29.62 inches Hg (1003.0 mb)
Winds: from the S (170 degrees) at 7 MPH (6 knots; 3.1 m/s)
Visibility: 6 or more miles (10+ km)
Ceiling: 10000 feet AGL
Clouds: scattered clouds at 800 feet AGL
overcast cloud deck at 10000 feet AGL
Weather: no significant weather observed at this time

METAR text: EHLW 180325Z AUTO 19006KT 150V210 9999 OVC110 16/15 Q1004 BLU
Conditions at: EHLW (LEEUWARDEN RNLAF, NL) observed 0325 UTC 18 August 2019
Temperature: 16.0°C (61°F)
Dewpoint: 15.0°C (59°F) [RH = 94%]
Pressure (altimeter): 29.65 inches Hg (1004.0 mb)
Winds: from the S (190 degrees) at 7 MPH (6 knots; 3.1 m/s)
Visibility: 6 or more miles (10+ km)
Ceiling: 11000 feet AGL
Clouds: overcast cloud deck at 11000 feet AGL
Weather: no significant weather observed at this time

METAR text: EHLW 180255Z AUTO 19006KT 140V210 9999 OVC110 16/15 Q1004 BLU
Conditions at: EHLW (LEEUWARDEN RNLAF, NL) observed 0255 UTC 18 August 2019
Temperature: 16.0°C (61°F)
Dewpoint: 15.0°C (59°F) [RH = 94%]
Pressure (altimeter): 29.65 inches Hg (1004.0 mb)
Winds: from the S (190 degrees) at 7 MPH (6 knots; 3.1 m/s)
Visibility: 6 or more miles (10+ km)
Ceiling: 11000 feet AGL
Clouds: overcast cloud deck at 11000 feet AGL
Weather: no significant weather observed at this time

METAR text: EHLW 180225Z AUTO 19006KT 140V220 9999 OVC130 16/15 Q1004 BLU
Conditions at: EHLW (LEEUWARDEN RNLAF, NL) observed 0225 UTC 18 August 2019
Temperature: 16.0°C (61°F)
Dewpoint: 15.0°C (59°F) [RH = 94%]
Pressure (altimeter): 29.65 inches Hg (1004.0 mb)
Winds: from the S (190 degrees) at 7 MPH (6 knots; 3.1 m/s)
Visibility: 6 or more miles (10+ km)
Ceiling: 13000 feet AGL
Clouds: overcast cloud deck at 13000 feet AGL
Weather: no significant weather observed at this time

METAR text: EHLW 180155Z AUTO 19006KT 140V210 9999 OVC140 16/15 Q1004 BLU
Conditions at: EHLW (LEEUWARDEN RNLAF, NL) observed 0155 UTC 18 August 2019
Temperature: 16.0°C (61°F)
Dewpoint: 15.0°C (59°F) [RH = 94%]
Pressure (altimeter): 29.65 inches Hg (1004.0 mb)
Winds: from the S (190 degrees) at 7 MPH (6 knots; 3.1 m/s)
Visibility: 6 or more miles (10+ km)
Ceiling: 14000 feet AGL
Clouds: overcast cloud deck at 14000 feet AGL
Weather: no significant weather observed at this time

METAR text: EHLW 180125Z AUTO 18006KT 150V210 9999 OVC070 16/15 Q1004 BLU
Conditions at: EHLW (LEEUWARDEN RNLAF, NL) observed 0125 UTC 18 August 2019
Temperature: 16.0°C (61°F)
Dewpoint: 15.0°C (59°F) [RH = 94%]
Pressure (altimeter): 29.65 inches Hg (1004.0 mb)
Winds: from the S (180 degrees) at 7 MPH (6 knots; 3.1 m/s)
Visibility: 6 or more miles (10+ km)
Ceiling: 7000 feet AGL
Clouds: overcast cloud deck at 7000 feet AGL
Weather: no significant weather observed at this time

METAR text: EHLW 180055Z AUTO 19005KT 150V230 9999 OVC170 16/15 Q1005 BLU
Conditions at: EHLW (LEEUWARDEN RNLAF, NL) observed 0055 UTC 18 August 2019
Temperature: 16.0°C (61°F)
Dewpoint: 15.0°C (59°F) [RH = 94%]
Pressure (altimeter): 29.68 inches Hg (1005.0 mb)
Winds: from the S (190 degrees) at 6 MPH (5 knots; 2.6 m/s)
Visibility: 6 or more miles (10+ km)
Ceiling: 17000 feet AGL
Clouds: overcast cloud deck at 17000 feet AGL
Weather: no significant weather observed at this time

METAR text: EHLW 180025Z AUTO 19005KT 160V220 9999 OVC170 16/15 Q1005 BLU
Conditions at: EHLW (LEEUWARDEN RNLAF, NL) observed 0025 UTC 18 August 2019
Temperature: 16.0°C (61°F)
Dewpoint: 15.0°C (59°F) [RH = 94%]
Pressure (altimeter): 29.68 inches Hg (1005.0 mb)
Winds: from the S (190 degrees) at 6 MPH (5 knots; 2.6 m/s)
Visibility: 6 or more miles (10+ km)
Ceiling: 17000 feet AGL
Clouds: overcast cloud deck at 17000 feet AGL
Weather: no significant weather observed at this time

METAR text: EHLW 172355Z AUTO 19006KT 160V220 9999 OVC190 16/15 Q1005 BLU
Conditions at: EHLW (LEEUWARDEN RNLAF, NL) observed 2355 UTC 17 August 2019
Temperature: 16.0°C (61°F)
Dewpoint: 15.0°C (59°F) [RH = 94%]
Pressure (altimeter): 29.68 inches Hg (1005.0 mb)
Winds: from the S (190 degrees) at 7 MPH (6 knots; 3.1 m/s)
Visibility: 6 or more miles (10+ km)
Ceiling: 19000 feet AGL
Clouds: overcast cloud deck at 19000 feet AGL
Weather: no significant weather observed at this time

METAR text: EHLW 172325Z AUTO 18006KT 150V210 9999 OVC200 16/15 Q1005 BLU
Conditions at: EHLW (LEEUWARDEN RNLAF, NL) observed 2325 UTC 17 August 2019
Temperature: 16.0°C (61°F)
Dewpoint: 15.0°C (59°F) [RH = 94%]
Pressure (altimeter): 29.68 inches Hg (1005.0 mb)
Winds: from the S (180 degrees) at 7 MPH (6 knots; 3.1 m/s)
Visibility: 6 or more miles (10+ km)
Ceiling: 20000 feet AGL
Clouds: overcast cloud deck at 20000 feet AGL
Weather: no significant weather observed at this time

METAR text: EHLW 172255Z AUTO 18005KT 150V220 9999 OVC200 16/15 Q1005 BLU
Conditions at: EHLW (LEEUWARDEN RNLAF, NL) observed 2255 UTC 17 August 2019
Temperature: 16.0°C (61°F)
Dewpoint: 15.0°C (59°F) [RH = 94%]
Pressure (altimeter): 29.68 inches Hg (1005.0 mb)
Winds: from the S (180 degrees) at 6 MPH (5 knots; 2.6 m/s)
Visibility: 6 or more miles (10+ km)
Ceiling: 20000 feet AGL
Clouds: overcast cloud deck at 20000 feet AGL
Weather: no significant weather observed at this time

METAR text: EHLW 172225Z AUTO 19005KT 160V230 9999 OVC220 16/15 Q1005 BLU
Conditions at: EHLW (LEEUWARDEN RNLAF, NL) observed 2225 UTC 17 August 2019
Temperature: 16.0°C (61°F)
Dewpoint: 15.0°C (59°F) [RH = 94%]
Pressure (altimeter): 29.68 inches Hg (1005.0 mb)
Winds: from the S (190 degrees) at 6 MPH (5 knots; 2.6 m/s)
Visibility: 6 or more miles (10+ km)
Ceiling: 22000 feet AGL
Clouds: overcast cloud deck at 22000 feet AGL
Weather: no significant weather observed at this time

METAR text: EHLW 172155Z AUTO 18005KT 150V230 9999 OVC210 16/15 Q1005 BLU
Conditions at: EHLW (LEEUWARDEN RNLAF, NL) observed 2155 UTC 17 August 2019
Temperature: 16.0°C (61°F)
Dewpoint: 15.0°C (59°F) [RH = 94%]
Pressure (altimeter): 29.68 inches Hg (1005.0 mb)
Winds: from the S (180 degrees) at 6 MPH (5 knots; 2.6 m/s)
Visibility: 6 or more miles (10+ km)
Ceiling: 21000 feet AGL
Clouds: overcast cloud deck at 21000 feet AGL
Weather: no significant weather observed at this time

METAR text: EHLW 172125Z AUTO 19005KT 9999 OVC240 15/14 Q1005 BLU
Conditions at: EHLW (LEEUWARDEN RNLAF, NL) observed 2125 UTC 17 August 2019
Temperature: 15.0°C (59°F)
Dewpoint: 14.0°C (57°F) [RH = 94%]
Pressure (altimeter): 29.68 inches Hg (1005.0 mb)
Winds: from the S (190 degrees) at 6 MPH (5 knots; 2.6 m/s)
Visibility: 6 or more miles (10+ km)
Ceiling: 24000 feet AGL
Clouds: overcast cloud deck at 24000 feet AGL
Weather: no significant weather observed at this time

METAR text: EHLW 172055Z AUTO 19005KT 9999 OVC270 15/14 Q1005 BLU
Conditions at: EHLW (LEEUWARDEN RNLAF, NL) observed 2055 UTC 17 August 2019
Temperature: 15.0°C (59°F)
Dewpoint: 14.0°C (57°F) [RH = 94%]
Pressure (altimeter): 29.68 inches Hg (1005.0 mb)
Winds: from the S (190 degrees) at 6 MPH (5 knots; 2.6 m/s)
Visibility: 6 or more miles (10+ km)
Ceiling: 27000 feet AGL
Clouds: overcast cloud deck at 27000 feet AGL
Weather: no significant weather observed at this time

METAR text: EHLW 172025Z AUTO 21005KT 9999 OVC280 16/14 Q1005 BLU
Conditions at: EHLW (LEEUWARDEN RNLAF, NL) observed 2025 UTC 17 August 2019
Temperature: 16.0°C (61°F)
Dewpoint: 14.0°C (57°F) [RH = 88%]
Pressure (altimeter): 29.68 inches Hg (1005.0 mb)
Winds: from the SSW (210 degrees) at 6 MPH (5 knots; 2.6 m/s)
Visibility: 6 or more miles (10+ km)
Ceiling: 28000 feet AGL
Clouds: overcast cloud deck at 28000 feet AGL
Weather: no significant weather observed at this time

METAR text: EHLW 171955Z AUTO 22005KT 9999 OVC290 16/14 Q1005 BLU
Conditions at: EHLW (LEEUWARDEN RNLAF, NL) observed 1955 UTC 17 August 2019
Temperature: 16.0°C (61°F)
Dewpoint: 14.0°C (57°F) [RH = 88%]
Pressure (altimeter): 29.68 inches Hg (1005.0 mb)
Winds: from the SW (220 degrees) at 6 MPH (5 knots; 2.6 m/s)
Visibility: 6 or more miles (10+ km)
Ceiling: 29000 feet AGL
Clouds: overcast cloud deck at 29000 feet AGL
Weather: no significant weather observed at this time

METAR text: EHLW 171925Z AUTO 23006KT 9999 OVC240 16/14 Q1005 BLU
Conditions at: EHLW (LEEUWARDEN RNLAF, NL) observed 1925 UTC 17 August 2019
Temperature: 16.0°C (61°F)
Dewpoint: 14.0°C (57°F) [RH = 88%]
Pressure (altimeter): 29.68 inches Hg (1005.0 mb)
Winds: from the SW (230 degrees) at 7 MPH (6 knots; 3.1 m/s)
Visibility: 6 or more miles (10+ km)
Ceiling: 24000 feet AGL
Clouds: overcast cloud deck at 24000 feet AGL
Weather: no significant weather observed at this time

METAR text: EHLW 171855Z AUTO 24008KT 9999 OVC250 17/14 Q1005 BLU
Conditions at: EHLW (LEEUWARDEN RNLAF, NL) observed 1855 UTC 17 August 2019
Temperature: 17.0°C (63°F)
Dewpoint: 14.0°C (57°F) [RH = 82%]
Pressure (altimeter): 29.68 inches Hg (1005.0 mb)
Winds: from the WSW (240 degrees) at 9 MPH (8 knots; 4.1 m/s)
Visibility: 6 or more miles (10+ km)
Ceiling: 25000 feet AGL
Clouds: overcast cloud deck at 25000 feet AGL
Weather: no significant weather observed at this time

METAR text: EHLW 171825Z AUTO 24009KT 9999 OVC290 18/15 Q1005 BLU
Conditions at: EHLW (LEEUWARDEN RNLAF, NL) observed 1825 UTC 17 August 2019
Temperature: 18.0°C (64°F)
Dewpoint: 15.0°C (59°F) [RH = 83%]
Pressure (altimeter): 29.68 inches Hg (1005.0 mb)
Winds: from the WSW (240 degrees) at 10 MPH (9 knots; 4.6 m/s)
Visibility: 6 or more miles (10+ km)
Ceiling: 29000 feet AGL
Clouds: overcast cloud deck at 29000 feet AGL
Weather: no significant weather observed at this time

METAR text: EHLW 171755Z AUTO 24010KT 9999 FEW021 OVC300 19/15 Q1005 BLU
Conditions at: EHLW (LEEUWARDEN RNLAF, NL) observed 1755 UTC 17 August 2019
Temperature: 19.0°C (66°F)
Dewpoint: 15.0°C (59°F) [RH = 78%]
Pressure (altimeter): 29.68 inches Hg (1005.0 mb)
Winds: from the WSW (240 degrees) at 12 MPH (10 knots; 5.1 m/s)
Visibility: 6 or more miles (10+ km)
Ceiling: 30000 feet AGL
Clouds: few clouds at 2100 feet AGL
overcast cloud deck at 30000 feet AGL
Weather: no significant weather observed at this time

METAR text: EHLW 171725Z AUTO 25011KT 9999 FEW021 BKN310 20/16 Q1004 BLU
Conditions at: EHLW (LEEUWARDEN RNLAF, NL) observed 1725 UTC 17 August 2019
Temperature: 20.0°C (68°F)
Dewpoint: 16.0°C (61°F) [RH = 78%]
Pressure (altimeter): 29.65 inches Hg (1004.0 mb)
Winds: from the WSW (250 degrees) at 13 MPH (11 knots; 5.7 m/s)
Visibility: 6 or more miles (10+ km)
Ceiling: 31000 feet AGL
Clouds: few clouds at 2100 feet AGL
broken clouds at 31000 feet AGL
Weather: no significant weather observed at this time

METAR text: EHLW 171655Z AUTO 25013KT 210V280 9999 FEW023 BKN160 20/15 Q1005 BLU
Conditions at: EHLW (LEEUWARDEN RNLAF, NL) observed 1655 UTC 17 August 2019
Temperature: 20.0°C (68°F)
Dewpoint: 15.0°C (59°F) [RH = 73%]
Pressure (altimeter): 29.68 inches Hg (1005.0 mb)
Winds: from the WSW (250 degrees) at 15 MPH (13 knots; 6.7 m/s)
Visibility: 6 or more miles (10+ km)
Ceiling: 16000 feet AGL
Clouds: few clouds at 2300 feet AGL
broken clouds at 16000 feet AGL
Weather: no significant weather observed at this time

METAR text: EHLW 171634Z AUTO 25013KT 210V270 9999 FEW023 SCT026 21/16 Q1004 BLU
Conditions at: EHLW (LEEUWARDEN RNLAF, NL) observed 1634 UTC 17 August 2019
Temperature: 21.0°C (70°F)
Dewpoint: 16.0°C (61°F) [RH = 73%]
Pressure (altimeter): 29.65 inches Hg (1004.0 mb)
Winds: from the WSW (250 degrees) at 15 MPH (13 knots; 6.7 m/s)
Visibility: 6 or more miles (10+ km)
Ceiling: at least 12,000 feet AGL
Clouds: few clouds at 2300 feet AGL
scattered clouds at 2600 feet AGL
Weather: no significant weather observed at this time

METAR text: EHLW 171631Z AUTO 24013KT 200V260 9999 SCT023 BKN027 BKN037 21/16 Q1004 WHT
Conditions at: EHLW (LEEUWARDEN RNLAF, NL) observed 1631 UTC 17 August 2019
Temperature: 21.0°C (70°F)
Dewpoint: 16.0°C (61°F) [RH = 73%]
Pressure (altimeter): 29.65 inches Hg (1004.0 mb)
Winds: from the WSW (240 degrees) at 15 MPH (13 knots; 6.7 m/s)
Visibility: 6 or more miles (10+ km)
Ceiling: 2700 feet AGL
Clouds: scattered clouds at 2300 feet AGL
broken clouds at 2700 feet AGL
broken clouds at 3700 feet AGL
Weather: no significant weather observed at this time

METAR text: EHLW 171629Z AUTO 24013KT 200V260 9999 BKN025 BKN034 BKN043 20/15 Q1004 BLU
Conditions at: EHLW (LEEUWARDEN RNLAF, NL) observed 1629 UTC 17 August 2019
Temperature: 20.0°C (68°F)
Dewpoint: 15.0°C (59°F) [RH = 73%]
Pressure (altimeter): 29.65 inches Hg (1004.0 mb)
Winds: from the WSW (240 degrees) at 15 MPH (13 knots; 6.7 m/s)
Visibility: 6 or more miles (10+ km)
Ceiling: 2500 feet AGL
Clouds: broken clouds at 2500 feet AGL
broken clouds at 3400 feet AGL
broken clouds at 4300 feet AGL
Weather: no significant weather observed at this time

METAR text: EHLW 171625Z AUTO 24014KT 9999 BKN024 BKN028 BKN034 20/16 Q1004 WHT
Conditions at: EHLW (LEEUWARDEN RNLAF, NL) observed 1625 UTC 17 August 2019
Temperature: 20.0°C (68°F)
Dewpoint: 16.0°C (61°F) [RH = 78%]
Pressure (altimeter): 29.65 inches Hg (1004.0 mb)
Winds: from the WSW (240 degrees) at 16 MPH (14 knots; 7.2 m/s)
Visibility: 6 or more miles (10+ km)
Ceiling: 2400 feet AGL
Clouds: broken clouds at 2400 feet AGL
broken clouds at 2800 feet AGL
broken clouds at 3400 feet AGL
Weather: no significant weather observed at this time

METAR text: EHLW 171610Z AUTO 24014KT 9999 SCT024 BKN030 BKN039 21/15 Q1005 WHT
Conditions at: EHLW (LEEUWARDEN RNLAF, NL) observed 1610 UTC 17 August 2019
Temperature: 21.0°C (70°F)
Dewpoint: 15.0°C (59°F) [RH = 69%]
Pressure (altimeter): 29.68 inches Hg (1005.0 mb)
Winds: from the WSW (240 degrees) at 16 MPH (14 knots; 7.2 m/s)
Visibility: 6 or more miles (10+ km)
Ceiling: 3000 feet AGL
Clouds: scattered clouds at 2400 feet AGL
broken clouds at 3000 feet AGL
broken clouds at 3900 feet AGL
Weather: no significant weather observed at this time

METAR text: EHLW 171606Z AUTO 24014KT 9999 FEW024 SCT028 BKN065 21/16 Q1004 BLU
Conditions at: EHLW (LEEUWARDEN RNLAF, NL) observed 1606 UTC 17 August 2019
Temperature: 21.0°C (70°F)
Dewpoint: 16.0°C (61°F) [RH = 73%]
Pressure (altimeter): 29.65 inches Hg (1004.0 mb)
Winds: from the WSW (240 degrees) at 16 MPH (14 knots; 7.2 m/s)
Visibility: 6 or more miles (10+ km)
Ceiling: 6500 feet AGL
Clouds: few clouds at 2400 feet AGL
scattered clouds at 2800 feet AGL
broken clouds at 6500 feet AGL
Weather: no significant weather observed at this time

METAR text: EHLW 171600Z AUTO 24011KT 200V260 9999 SCT023 SCT028 BKN033 21/16 Q1004 WHT
Conditions at: EHLW (LEEUWARDEN RNLAF, NL) observed 1600 UTC 17 August 2019
Temperature: 21.0°C (70°F)
Dewpoint: 16.0°C (61°F) [RH = 73%]
Pressure (altimeter): 29.65 inches Hg (1004.0 mb)
Winds: from the WSW (240 degrees) at 13 MPH (11 knots; 5.7 m/s)
Visibility: 6 or more miles (10+ km)
Ceiling: 3300 feet AGL
Clouds: scattered clouds at 2300 feet AGL
scattered clouds at 2800 feet AGL
broken clouds at 3300 feet AGL
Weather: no significant weather observed at this time

METAR text: EHLW 171555Z AUTO 23012KT 9999 FEW022 SCT039 BKN049 20/16 Q1004 BLU
Conditions at: EHLW (LEEUWARDEN RNLAF, NL) observed 1555 UTC 17 August 2019
Temperature: 20.0°C (68°F)
Dewpoint: 16.0°C (61°F) [RH = 78%]
Pressure (altimeter): 29.65 inches Hg (1004.0 mb)
Winds: from the SW (230 degrees) at 14 MPH (12 knots; 6.2 m/s)
Visibility: 6 or more miles (10+ km)
Ceiling: 4900 feet AGL
Clouds: few clouds at 2200 feet AGL
scattered clouds at 3900 feet AGL
broken clouds at 4900 feet AGL
Weather: no significant weather observed at this time

METAR text: EHLW 171548Z AUTO 23012KT 200V260 9999 FEW022 SCT025 BKN029 20/16 Q1004 BLU
Conditions at: EHLW (LEEUWARDEN RNLAF, NL) observed 1548 UTC 17 August 2019
Temperature: 20.0°C (68°F)
Dewpoint: 16.0°C (61°F) [RH = 78%]
Pressure (altimeter): 29.65 inches Hg (1004.0 mb)
Winds: from the SW (230 degrees) at 14 MPH (12 knots; 6.2 m/s)
Visibility: 6 or more miles (10+ km)
Ceiling: 2900 feet AGL
Clouds: few clouds at 2200 feet AGL
scattered clouds at 2500 feet AGL
broken clouds at 2900 feet AGL
Weather: no significant weather observed at this time

METAR text: EHLW 171541Z AUTO 24010KT 200V260 9999 SCT022 BKN026 BKN033 20/16 Q1004 WHT
Conditions at: EHLW (LEEUWARDEN RNLAF, NL) observed 1541 UTC 17 August 2019
Temperature: 20.0°C (68°F)
Dewpoint: 16.0°C (61°F) [RH = 78%]
Pressure (altimeter): 29.65 inches Hg (1004.0 mb)
Winds: from the WSW (240 degrees) at 12 MPH (10 knots; 5.1 m/s)
Visibility: 6 or more miles (10+ km)
Ceiling: 2600 feet AGL
Clouds: scattered clouds at 2200 feet AGL
broken clouds at 2600 feet AGL
broken clouds at 3300 feet AGL
Weather: no significant weather observed at this time

METAR text: EHLW 171539Z AUTO 23010KT 9999 FEW022 SCT028 BKN043 20/16 Q1004 BLU
Conditions at: EHLW (LEEUWARDEN RNLAF, NL) observed 1539 UTC 17 August 2019
Temperature: 20.0°C (68°F)
Dewpoint: 16.0°C (61°F) [RH = 78%]
Pressure (altimeter): 29.65 inches Hg (1004.0 mb)
Winds: from the SW (230 degrees) at 12 MPH (10 knots; 5.1 m/s)
Visibility: 6 or more miles (10+ km)
Ceiling: 4300 feet AGL
Clouds: few clouds at 2200 feet AGL
scattered clouds at 2800 feet AGL
broken clouds at 4300 feet AGL
Weather: no significant weather observed at this time

METAR text: EHLW 171529Z AUTO 23012KT 9999 FEW021 BKN024 BKN028 21/16 Q1004 WHT
Conditions at: EHLW (LEEUWARDEN RNLAF, NL) observed 1529 UTC 17 August 2019
Temperature: 21.0°C (70°F)
Dewpoint: 16.0°C (61°F) [RH = 73%]
Pressure (altimeter): 29.65 inches Hg (1004.0 mb)
Winds: from the SW (230 degrees) at 14 MPH (12 knots; 6.2 m/s)
Visibility: 6 or more miles (10+ km)
Ceiling: 2400 feet AGL
Clouds: few clouds at 2100 feet AGL
broken clouds at 2400 feet AGL
broken clouds at 2800 feet AGL
Weather: no significant weather observed at this time

Forecast for: EHLW (LEEUWARDEN RNLAF, NL)
Text: TAF EHLW 190051Z 1901/1913 20005KT 9999 FEW030 BKN080
Forecast period: 0100 to 0700 UTC 19 August 2019
Forecast type: FROM: standard forecast or significant change
Winds: from the SSW (200 degrees) at 6 MPH (5 knots; 2.6 m/s)
Visibility: 6 or more miles 10+ km)
Ceiling: 8000 feet AGL
Clouds: few clouds at 3000 feet AGL
broken clouds at 8000 feet AGL
Weather: no significant weather forecast for this period
Text: TEMPO 1901/1907 FEW020CB BKN025
Forecast period: 0100 to 0700 UTC 19 August 2019
Forecast type: TEMPORARY: The following changes expected for less than half the time period
Visibility: missing
Ceiling: 2500 feet AGL
Clouds: few clouds at 2000 feet AGL
broken clouds at 2500 feet AGL
Weather: no significant weather forecast for this period
Text: BECMG 1907/1909 24015G28KT
Forecast period: 0700 to 1300 UTC 19 August 2019
Forecast type: BECOMING: Conditions expected to become as follows by 0900 UTC 19 August 2019
Winds: from the WSW (240 degrees) at 17 MPH (15 knots; 7.7 m/s)
gusting to 32 MPH (28 knots; 14.4 m/s)
Visibility: 6 or more miles 10+ km)
Ceiling: 8000 feet AGL
Clouds: few clouds at 3000 feet AGL
broken clouds at 8000 feet AGL
Weather: no significant weather forecast for this period
Text: PROB30
Forecast period: 0700 to 1300 UTC 19 August 2019
Forecast type: TEMPORARY: The following changes expected for less than half the time period
Visibility: missing
Ceiling: at least 12,000 feet AGL
Clouds: scattered clouds at 2200 feet AGL
Weather: no significant weather forecast for this period